sensor_id;sensor_type;location;lat;lon;timestamp;pressure;altitude;pressure_sealevel;temperature;humidity
56514;BME280;62152;52.078;8.414;2023-03-30T00:01:20;99293.13;;;18.07;51.88
56514;BME280;62152;52.078;8.414;2023-03-30T00:05:22;99298.59;;;18.07;51.95
56514;BME280;62152;52.078;8.414;2023-03-30T00:09:22;99294.28;;;18.06;51.73
56514;BME280;62152;52.078;8.414;2023-03-30T00:13:23;99281.75;;;18.09;51.87
56514;BME280;62152;52.078;8.414;2023-03-30T00:17:23;99278.22;;;18.08;51.64
56514;BME280;62152;52.078;8.414;2023-03-30T00:21:25;99287.25;;;18.09;51.78
56514;BME280;62152;52.078;8.414;2023-03-30T00:25:25;99272.72;;;18.08;51.90
56514;BME280;62152;52.078;8.414;2023-03-30T00:29:26;99267.63;;;18.10;51.83
56514;BME280;62152;52.078;8.414;2023-03-30T00:33:26;99263.31;;;18.09;51.71
56514;BME280;62152;52.078;8.414;2023-03-30T00:37:28;99276.25;;;18.09;51.67
56514;BME280;62152;52.078;8.414;2023-03-30T00:41:28;99251.56;;;18.09;51.73
56514;BME280;62152;52.078;8.414;2023-03-30T00:45:29;99253.13;;;18.10;51.75
56514;BME280;62152;52.078;8.414;2023-03-30T00:49:30;99233.13;;;18.09;52.00
56514;BME280;62152;52.078;8.414;2023-03-30T00:53:32;99233.13;;;18.09;51.72
56514;BME280;62152;52.078;8.414;2023-03-30T00:57:35;99232.75;;;18.07;52.05
56514;BME280;62152;52.078;8.414;2023-03-30T01:01:36;99228.44;;;18.10;51.83
56514;BME280;62152;52.078;8.414;2023-03-30T01:05:38;99218.63;;;18.09;51.73
56514;BME280;62152;52.078;8.414;2023-03-30T01:09:42;99209.63;;;18.08;51.70
56514;BME280;62152;52.078;8.414;2023-03-30T01:13:44;99196.69;;;18.09;51.81
56514;BME280;62152;52.078;8.414;2023-03-30T01:17:50;99204.13;;;18.08;51.73
56514;BME280;62152;52.078;8.414;2023-03-30T01:22:09;99200.22;;;18.09;51.94
56514;BME280;62152;52.078;8.414;2023-03-30T01:26:22;99198.25;;;18.10;51.93
56514;BME280;62152;52.078;8.414;2023-03-30T01:30:57;86728.66;;;18.10;51.97
56514;BME280;62152;52.078;8.414;2023-03-30T01:39:54;99168.06;;;18.10;51.86
56514;BME280;62152;52.078;8.414;2023-03-30T01:44:02;99170.41;;;18.11;52.17
56514;BME280;62152;52.078;8.414;2023-03-30T01:48:12;99136.69;;;18.11;52.13
56514;BME280;62152;52.078;8.414;2023-03-30T01:52:16;99133.19;;;18.10;52.12
56514;BME280;62152;52.078;8.414;2023-03-30T01:56:25;99131.22;;;18.11;52.12
56514;BME280;62152;52.078;8.414;2023-03-30T02:00:31;99133.97;;;18.11;52.04
56514;BME280;62152;52.078;8.414;2023-03-30T02:04:36;99127.69;;;18.10;52.13
56514;BME280;62152;52.078;8.414;2023-03-30T02:08:40;99121.03;;;18.11;52.24
56514;BME280;62152;52.078;8.414;2023-03-30T02:12:44;99135.13;;;18.10;52.07
56514;BME280;62152;52.078;8.414;2023-03-30T02:16:47;99132.41;;;18.10;51.93
56514;BME280;62152;52.078;8.414;2023-03-30T02:20:52;99127.28;;;18.12;51.98
56514;BME280;62152;52.078;8.414;2023-03-30T02:24:54;99130.03;;;18.12;51.90
56514;BME280;62152;52.078;8.414;2023-03-30T02:28:56;99129.25;;;18.11;52.14
56514;BME280;62152;52.078;8.414;2023-03-30T02:32:57;99128.09;;;18.12;52.06
56514;BME280;62152;52.078;8.414;2023-03-30T02:37:02;99127.28;;;18.12;52.06
56514;BME280;62152;52.078;8.414;2023-03-30T02:41:19;99121.44;;;18.13;51.95
56514;BME280;62152;52.078;8.414;2023-03-30T02:45:26;99117.13;;;18.12;52.15
56514;BME280;62152;52.078;8.414;2023-03-30T02:49:36;99100.66;;;18.12;52.01
56514;BME280;62152;52.078;8.414;2023-03-30T02:53:49;99095.16;;;18.12;52.11
56514;BME280;62152;52.078;8.414;2023-03-30T02:58:10;99092.44;;;18.12;52.35
56514;BME280;62152;52.078;8.414;2023-03-30T03:02:43;99091.63;;;18.12;52.42
56514;BME280;62152;52.078;8.414;2023-03-30T03:06:57;99093.22;;;18.13;52.22
56514;BME280;62152;52.078;8.414;2023-03-30T03:10:57;99095.16;;;18.12;52.31
56514;BME280;62152;52.078;8.414;2023-03-30T03:15:01;99099.84;;;18.12;52.39
56514;BME280;62152;52.078;8.414;2023-03-30T03:19:03;99095.94;;;18.13;52.03
56514;BME280;62152;52.078;8.414;2023-03-30T03:23:04;99099.47;;;18.13;52.39
56514;BME280;62152;52.078;8.414;2023-03-30T03:27:12;99084.56;;;18.14;52.46
56514;BME280;62152;52.078;8.414;2023-03-30T03:31:28;99080.66;;;18.15;52.38
56514;BME280;62152;52.078;8.414;2023-03-30T03:35:30;99066.16;;;18.15;52.66
56514;BME280;62152;52.078;8.414;2023-03-30T03:39:33;99057.50;;;18.16;52.66
56514;BME280;62152;52.078;8.414;2023-03-30T03:43:39;99044.97;;;18.15;52.79
56514;BME280;62152;52.078;8.414;2023-03-30T03:47:40;99038.72;;;18.15;52.69
56514;BME280;62152;52.078;8.414;2023-03-30T03:51:41;99039.50;;;18.15;52.80
56514;BME280;62152;52.078;8.414;2023-03-30T03:55:42;99042.22;;;18.15;52.65
56514;BME280;62152;52.078;8.414;2023-03-30T03:59:43;99044.97;;;18.15;52.44
56514;BME280;62152;52.078;8.414;2023-03-30T04:03:43;99044.97;;;18.15;52.67
56514;BME280;62152;52.078;8.414;2023-03-30T04:07:45;99031.66;;;18.14;51.91
56514;BME280;62152;52.078;8.414;2023-03-30T04:11:46;99037.53;;;18.12;52.29
56514;BME280;62152;52.078;8.414;2023-03-30T04:16:05;99030.09;;;18.06;51.78
56514;BME280;62152;52.078;8.414;2023-03-30T04:20:25;99041.06;;;18.06;51.34
56514;BME280;62152;52.078;8.414;2023-03-30T04:24:48;99041.84;;;18.06;51.03
56514;BME280;62152;52.078;8.414;2023-03-30T04:29:07;99028.91;;;18.07;51.29
56514;BME280;62152;52.078;8.414;2023-03-30T04:33:10;99032.44;;;18.11;50.97
56514;BME280;62152;52.078;8.414;2023-03-30T04:37:37;99023.03;;;18.08;51.22
56514;BME280;62152;52.078;8.414;2023-03-30T04:41:57;99015.97;;;18.07;51.32
56514;BME280;62152;52.078;8.414;2023-03-30T04:46:08;99013.25;;;18.07;51.41
56514;BME280;62152;52.078;8.414;2023-03-30T04:50:24;99012.88;;;18.05;51.59
56514;BME280;62152;52.078;8.414;2023-03-30T04:54:40;99016.38;;;18.06;51.40
56514;BME280;62152;52.078;8.414;2023-03-30T04:59:20;99017.16;;;18.06;51.58
56514;BME280;62152;52.078;8.414;2023-03-30T05:03:36;99026.59;;;18.05;51.20
56514;BME280;62152;52.078;8.414;2023-03-30T05:07:51;99026.59;;;18.05;51.62
56514;BME280;62152;52.078;8.414;2023-03-30T05:12:00;99016.75;;;18.04;51.61
56514;BME280;62152;52.078;8.414;2023-03-30T05:16:12;99005.78;;;18.04;51.29
56514;BME280;62152;52.078;8.414;2023-03-30T05:20:40;99014.00;;;18.04;51.58
56514;BME280;62152;52.078;8.414;2023-03-30T05:25:19;99017.53;;;18.04;51.47
56514;BME280;62152;52.078;8.414;2023-03-30T05:29:43;99026.59;;;18.05;51.66
56514;BME280;62152;52.078;8.414;2023-03-30T05:33:54;99006.56;;;18.04;51.59
56514;BME280;62152;52.078;8.414;2023-03-30T05:38:15;99009.31;;;18.04;51.48
56514;BME280;62152;52.078;8.414;2023-03-30T05:42:44;99000.28;;;18.04;51.66
56514;BME280;62152;52.078;8.414;2023-03-30T05:47:10;99007.38;;;18.05;51.55
56514;BME280;62152;52.078;8.414;2023-03-30T05:51:24;99010.13;;;18.05;51.68
56514;BME280;62152;52.078;8.414;2023-03-30T05:55:45;99001.88;;;18.05;51.58
56514;BME280;62152;52.078;8.414;2023-03-30T06:00:05;98996.41;;;18.05;51.46
56514;BME280;62152;52.078;8.414;2023-03-30T06:04:30;98994.44;;;18.06;51.59
56514;BME280;62152;52.078;8.414;2023-03-30T06:08:31;98983.84;;;18.04;51.71
56514;BME280;62152;52.078;8.414;2023-03-30T06:12:36;98985.03;;;18.07;51.37
56514;BME280;62152;52.078;8.414;2023-03-30T06:16:39;98985.41;;;18.05;51.40
56514;BME280;62152;52.078;8.414;2023-03-30T06:20:41;98992.47;;;18.06;51.67
56514;BME280;62152;52.078;8.414;2023-03-30T06:24:44;98997.97;;;18.06;51.65
56514;BME280;62152;52.078;8.414;2023-03-30T06:28:46;98989.72;;;18.06;51.47
56514;BME280;62152;52.078;8.414;2023-03-30T06:32:46;98993.25;;;18.07;51.32
56514;BME280;62152;52.078;8.414;2023-03-30T06:37:07;98999.53;;;18.07;51.63
56514;BME280;62152;52.078;8.414;2023-03-30T06:41:09;99004.22;;;18.07;51.67
56514;BME280;62152;52.078;8.414;2023-03-30T06:45:12;99004.59;;;18.09;51.46
56514;BME280;62152;52.078;8.414;2023-03-30T06:49:13;99001.09;;;18.08;51.70
56514;BME280;62152;52.078;8.414;2023-03-30T06:53:17;99005.00;;;18.07;51.37
56514;BME280;62152;52.078;8.414;2023-03-30T06:57:22;99001.88;;;18.09;51.45
56514;BME280;62152;52.078;8.414;2023-03-30T07:01:22;99008.13;;;18.09;51.35
56514;BME280;62152;52.078;8.414;2023-03-30T07:05:49;99009.31;;;18.08;51.36
56514;BME280;62152;52.078;8.414;2023-03-30T07:10:05;99008.13;;;18.09;51.52
56514;BME280;62152;52.078;8.414;2023-03-30T07:14:08;99003.44;;;18.10;51.37
56514;BME280;62152;52.078;8.414;2023-03-30T07:18:09;99001.09;;;18.08;51.55
56514;BME280;62152;52.078;8.414;2023-03-30T07:22:09;98999.91;;;18.09;51.31
56514;BME280;62152;52.078;8.414;2023-03-30T07:26:10;99003.44;;;18.10;51.25
56514;BME280;62152;52.078;8.414;2023-03-30T07:30:29;98997.16;;;18.09;51.41
56514;BME280;62152;52.078;8.414;2023-03-30T07:34:35;98998.72;;;18.10;51.60
56514;BME280;62152;52.078;8.414;2023-03-30T07:38:36;99002.66;;;18.13;51.36
56514;BME280;62152;52.078;8.414;2023-03-30T07:42:36;99007.75;;;18.14;51.18
56514;BME280;62152;52.078;8.414;2023-03-30T07:46:39;99003.44;;;18.13;51.35
56514;BME280;62152;52.078;8.414;2023-03-30T07:50:41;99012.03;;;18.15;51.16
56514;BME280;62152;52.078;8.414;2023-03-30T07:54:42;99011.25;;;18.18;51.23
56514;BME280;62152;52.078;8.414;2023-03-30T07:58:50;99012.84;;;18.19;51.02
56514;BME280;62152;52.078;8.414;2023-03-30T08:02:54;99015.97;;;18.21;51.14
56514;BME280;62152;52.078;8.414;2023-03-30T08:06:55;99014.78;;;18.22;51.00
56514;BME280;62152;52.078;8.414;2023-03-30T08:10:56;99015.56;;;18.23;51.14
56514;BME280;62152;52.078;8.414;2023-03-30T08:14:58;99009.28;;;18.22;51.10
56514;BME280;62152;52.078;8.414;2023-03-30T08:19:00;99016.75;;;18.22;51.29
56514;BME280;62152;52.078;8.414;2023-03-30T08:23:00;99045.78;;;18.19;51.31
56514;BME280;62152;52.078;8.414;2023-03-30T08:27:01;99038.31;;;18.16;51.49
56514;BME280;62152;52.078;8.414;2023-03-30T08:31:02;99037.94;;;18.14;51.20
56514;BME280;62152;52.078;8.414;2023-03-30T08:35:04;99046.53;;;18.16;51.50
56514;BME280;62152;52.078;8.414;2023-03-30T08:39:05;99043.41;;;18.18;51.27
56514;BME280;62152;52.078;8.414;2023-03-30T08:47:31;99048.88;;;18.18;51.25
56514;BME280;62152;52.078;8.414;2023-03-30T08:51:33;99056.34;;;18.17;51.25
56514;BME280;62152;52.078;8.414;2023-03-30T08:55:37;99045.75;;;18.16;51.24
56514;BME280;62152;52.078;8.414;2023-03-30T08:59:40;99055.56;;;18.17;51.29
56514;BME280;62152;52.078;8.414;2023-03-30T09:03:51;99050.47;;;18.15;51.34
56514;BME280;62152;52.078;8.414;2023-03-30T09:08:03;99048.91;;;18.14;51.55
56514;BME280;62152;52.078;8.414;2023-03-30T09:12:12;99053.59;;;18.14;51.44
56514;BME280;62152;52.078;8.414;2023-03-30T09:16:32;99078.31;;;18.14;51.48
56514;BME280;62152;52.078;8.414;2023-03-30T09:20:35;99108.50;;;18.14;51.66
56514;BME280;62152;52.078;8.414;2023-03-30T09:24:38;99111.25;;;18.14;51.51
56514;BME280;62152;52.078;8.414;2023-03-30T09:28:40;99127.28;;;18.12;51.58
56514;BME280;62152;52.078;8.414;2023-03-30T09:32:54;99117.13;;;18.12;100.00
56514;BME280;62152;52.078;8.414;2023-03-30T09:36:59;99113.19;;;18.13;51.43
56514;BME280;62152;52.078;8.414;2023-03-30T09:41:09;99112.00;;;18.18;51.29
56514;BME280;62152;52.078;8.414;2023-03-30T09:45:13;99096.31;;;18.18;51.40
56514;BME280;62152;52.078;8.414;2023-03-30T09:49:16;99092.00;;;18.17;51.32
56514;BME280;62152;52.078;8.414;2023-03-30T09:53:17;99088.91;;;18.19;51.44
56514;BME280;62152;52.078;8.414;2023-03-30T09:57:24;99086.53;;;18.17;51.55
56514;BME280;62152;52.078;8.414;2023-03-30T10:01:33;99084.97;;;18.16;51.47
56514;BME280;62152;52.078;8.414;2023-03-30T10:05:34;99091.66;;;18.19;51.49
56514;BME280;62152;52.078;8.414;2023-03-30T10:09:36;99095.94;;;18.20;51.48
56514;BME280;62152;52.078;8.414;2023-03-30T10:13:43;99100.63;;;18.23;51.27
56514;BME280;62152;52.078;8.414;2023-03-30T10:17:45;99114.75;;;18.25;51.14
56514;BME280;62152;52.078;8.414;2023-03-30T10:21:47;99106.91;;;18.23;51.29
56514;BME280;62152;52.078;8.414;2023-03-30T10:25:51;99110.84;;;18.22;51.18
56514;BME280;62152;52.078;8.414;2023-03-30T10:30:06;99108.50;;;18.21;51.37
56514;BME280;62152;52.078;8.414;2023-03-30T10:34:12;99109.66;;;18.23;51.13
56514;BME280;62152;52.078;8.414;2023-03-30T10:38:16;99106.91;;;18.27;51.37
56514;BME280;62152;52.078;8.414;2023-03-30T10:42:17;99109.28;;;18.28;51.08
56514;BME280;62152;52.078;8.414;2023-03-30T10:46:21;99103.00;;;18.28;51.39
56514;BME280;62152;52.078;8.414;2023-03-30T10:50:24;99107.69;;;18.27;51.09
56514;BME280;62152;52.078;8.414;2023-03-30T10:54:32;99106.53;;;18.28;51.44
56514;BME280;62152;52.078;8.414;2023-03-30T10:58:42;99108.50;;;18.28;51.10
56514;BME280;62152;52.078;8.414;2023-03-30T11:02:57;99106.13;;;18.30;51.06
56514;BME280;62152;52.078;8.414;2023-03-30T11:07:06;99106.13;;;18.34;51.02
56514;BME280;62152;52.078;8.414;2023-03-30T11:11:15;99102.59;;;18.33;51.19
56514;BME280;62152;52.078;8.414;2023-03-30T11:15:20;99092.81;;;18.28;51.23
56514;BME280;62152;52.078;8.414;2023-03-30T11:19:24;99099.84;;;18.29;51.21
56514;BME280;62152;52.078;8.414;2023-03-30T11:23:35;99100.22;;;18.31;51.15
56514;BME280;62152;52.078;8.414;2023-03-30T11:27:38;99108.09;;;18.29;51.11
56514;BME280;62152;52.078;8.414;2023-03-30T11:31:48;99118.69;;;18.27;51.23
56514;BME280;62152;52.078;8.414;2023-03-30T11:35:58;99114.75;;;18.25;51.08
56514;BME280;62152;52.078;8.414;2023-03-30T11:40:03;99114.75;;;18.25;51.23
56514;BME280;62152;52.078;8.414;2023-03-30T11:44:08;99117.50;;;18.25;51.33
56514;BME280;62152;52.078;8.414;2023-03-30T11:48:14;99100.63;;;18.23;51.36
56514;BME280;62152;52.078;8.414;2023-03-30T11:52:23;99110.84;;;18.22;51.34
56514;BME280;62152;52.078;8.414;2023-03-30T11:56:32;99122.59;;;18.23;51.32
56514;BME280;62152;52.078;8.414;2023-03-30T12:00:41;99123.00;;;18.28;50.90
56514;BME280;62152;52.078;8.414;2023-03-30T12:04:48;99121.81;;;18.29;51.17
56514;BME280;62152;52.078;8.414;2023-03-30T12:08:56;99126.13;;;18.30;51.11
56514;BME280;62152;52.078;8.414;2023-03-30T12:13:00;99130.06;;;18.33;50.73
56514;BME280;62152;52.078;8.414;2023-03-30T12:17:04;99125.72;;;18.32;50.92
56514;BME280;62152;52.078;8.414;2023-03-30T12:21:16;99120.22;;;18.32;50.79
56514;BME280;62152;52.078;8.414;2023-03-30T12:25:31;99100.63;;;18.30;50.96
56514;BME280;62152;52.078;8.414;2023-03-30T12:29:42;99106.13;;;18.30;51.19
56514;BME280;62152;52.078;8.414;2023-03-30T12:33:45;99107.69;;;18.27;50.88
56514;BME280;62152;52.078;8.414;2023-03-30T12:37:46;99126.91;;;18.27;51.00
56514;BME280;62152;52.078;8.414;2023-03-30T12:41:49;99106.13;;;18.26;51.18
56514;BME280;62152;52.078;8.414;2023-03-30T12:45:50;99110.44;;;18.24;51.30
56514;BME280;62152;52.078;8.414;2023-03-30T12:49:56;99157.09;;;18.24;51.26
56514;BME280;62152;52.078;8.414;2023-03-30T12:54:15;99132.81;;;18.26;51.12
56514;BME280;62152;52.078;8.414;2023-03-30T12:58:40;99124.97;;;18.28;51.18
56514;BME280;62152;52.078;8.414;2023-03-30T13:02:46;99119.47;;;18.28;51.14
56514;BME280;62152;52.078;8.414;2023-03-30T13:07:00;99125.34;;;18.30;51.19
56514;BME280;62152;52.078;8.414;2023-03-30T13:11:05;99117.09;;;18.30;51.02
56514;BME280;62152;52.078;8.414;2023-03-30T13:15:30;99126.13;;;18.30;50.93
56514;BME280;62152;52.078;8.414;2023-03-30T13:19:41;99125.34;;;18.30;51.04
56514;BME280;62152;52.078;8.414;2023-03-30T13:23:58;99133.56;;;18.30;51.04
56514;BME280;62152;52.078;8.414;2023-03-30T13:27:59;99111.63;;;18.34;51.05
56514;BME280;62152;52.078;8.414;2023-03-30T13:32:51;99120.25;;;18.36;50.96
56514;BME280;62152;52.078;8.414;2023-03-30T13:36:58;99128.88;;;18.34;50.83
56514;BME280;62152;52.078;8.414;2023-03-30T13:41:06;99122.59;;;18.34;51.03
56514;BME280;62152;52.078;8.414;2023-03-30T13:45:15;99126.13;;;18.34;50.65
56514;BME280;62152;52.078;8.414;2023-03-30T13:49:21;99119.84;;;18.34;51.12
56514;BME280;62152;52.078;8.414;2023-03-30T13:53:25;99120.63;;;18.30;50.98
56514;BME280;62152;52.078;8.414;2023-03-30T13:57:27;99120.63;;;18.30;51.01
56514;BME280;62152;52.078;8.414;2023-03-30T14:01:33;99132.81;;;18.33;50.94
56514;BME280;62152;52.078;8.414;2023-03-30T14:05:35;99128.06;;;18.37;50.81
56514;BME280;62152;52.078;8.414;2023-03-30T14:09:36;99115.56;;;18.33;50.74
56514;BME280;62152;52.078;8.414;2023-03-30T14:13:36;99124.94;;;18.31;50.87
56514;BME280;62152;52.078;8.414;2023-03-30T14:17:37;99128.09;;;18.34;50.71
56514;BME280;62152;52.078;8.414;2023-03-30T14:21:39;99124.16;;;18.35;50.87
56514;BME280;62152;52.078;8.414;2023-03-30T14:25:44;99127.31;;;18.33;51.03
56514;BME280;62152;52.078;8.414;2023-03-30T14:29:45;99126.91;;;18.35;50.77
56514;BME280;62152;52.078;8.414;2023-03-30T14:33:46;99129.66;;;18.35;51.08
56514;BME280;62152;52.078;8.414;2023-03-30T14:37:48;99128.09;;;18.34;50.99
56514;BME280;62152;52.078;8.414;2023-03-30T14:41:49;99135.91;;;18.31;50.95
56514;BME280;62152;52.078;8.414;2023-03-30T14:45:49;99142.59;;;18.30;50.91
56514;BME280;62152;52.078;8.414;2023-03-30T14:49:52;99140.66;;;18.27;51.04
56514;BME280;62152;52.078;8.414;2023-03-30T14:53:56;99188.47;;;18.26;50.89
56514;BME280;62152;52.078;8.414;2023-03-30T14:57:56;99203.38;;;18.29;51.14
56514;BME280;62152;52.078;8.414;2023-03-30T15:01:57;99202.56;;;18.32;50.95
56514;BME280;62152;52.078;8.414;2023-03-30T15:05:59;99202.59;;;18.36;51.09
56514;BME280;62152;52.078;8.414;2023-03-30T15:10:01;99195.53;;;18.35;50.80
56514;BME280;62152;52.078;8.414;2023-03-30T15:14:02;99185.75;;;18.34;51.08
56514;BME280;62152;52.078;8.414;2023-03-30T15:18:06;99177.09;;;18.35;50.97
56514;BME280;62152;52.078;8.414;2023-03-30T15:22:11;99168.09;;;18.35;51.02
56514;BME280;62152;52.078;8.414;2023-03-30T15:26:19;99184.94;;;18.37;50.93
56514;BME280;62152;52.078;8.414;2023-03-30T15:30:23;99177.88;;;18.36;50.79
56514;BME280;62152;52.078;8.414;2023-03-30T15:34:27;99176.31;;;18.35;51.06
56514;BME280;62152;52.078;8.414;2023-03-30T15:38:28;99180.25;;;18.34;50.94
56514;BME280;62152;52.078;8.414;2023-03-30T15:42:30;99169.63;;;18.32;51.27
56514;BME280;62152;52.078;8.414;2023-03-30T15:46:32;99166.50;;;18.37;50.80
56514;BME280;62152;52.078;8.414;2023-03-30T15:50:32;99169.25;;;18.37;50.95
56514;BME280;62152;52.078;8.414;2023-03-30T15:54:35;99170.44;;;18.40;50.99
56514;BME280;62152;52.078;8.414;2023-03-30T15:58:39;99167.69;;;18.50;50.52
56514;BME280;62152;52.078;8.414;2023-03-30T16:02:40;99157.09;;;18.52;50.43
56514;BME280;62152;52.078;8.414;2023-03-30T16:06:44;99153.97;;;18.47;50.90
56514;BME280;62152;52.078;8.414;2023-03-30T16:10:45;99159.84;;;18.42;50.82
56514;BME280;62152;52.078;8.414;2023-03-30T16:14:47;99152.00;;;18.44;50.71
56514;BME280;62152;52.078;8.414;2023-03-30T16:18:48;99155.53;;;18.41;50.87
56514;BME280;62152;52.078;8.414;2023-03-30T16:22:49;99170.03;;;18.38;51.03
56514;BME280;62152;52.078;8.414;2023-03-30T16:26:50;99164.56;;;18.34;51.03
56514;BME280;62152;52.078;8.414;2023-03-30T16:30:52;99165.34;;;18.35;51.09
56514;BME280;62152;52.078;8.414;2023-03-30T16:34:56;99166.91;;;18.46;51.00
56514;BME280;62152;52.078;8.414;2023-03-30T16:38:57;99164.94;;;18.50;50.63
56514;BME280;62152;52.078;8.414;2023-03-30T16:42:57;99170.81;;;18.56;51.59
56514;BME280;62152;52.078;8.414;2023-03-30T16:46:59;99173.56;;;18.63;51.94
56514;BME280;62152;52.078;8.414;2023-03-30T16:51:00;99168.88;;;18.53;52.03
56514;BME280;62152;52.078;8.414;2023-03-30T16:55:00;99166.53;;;18.48;51.92
56514;BME280;62152;52.078;8.414;2023-03-30T16:59:01;99163.75;;;18.44;52.37
56514;BME280;62152;52.078;8.414;2023-03-30T17:03:03;99163.78;;;18.41;52.45
56514;BME280;62152;52.078;8.414;2023-03-30T17:07:03;99176.72;;;18.47;52.27
56514;BME280;62152;52.078;8.414;2023-03-30T17:11:03;99181.44;;;18.54;52.50
56514;BME280;62152;52.078;8.414;2023-03-30T17:15:04;98622.59;;;18.56;52.50
56514;BME280;62152;52.078;8.414;2023-03-30T17:19:09;99174.34;;;18.56;52.42
56514;BME280;62152;52.078;8.414;2023-03-30T17:23:09;99172.00;;;18.55;52.85
56514;BME280;62152;52.078;8.414;2023-03-30T17:27:10;99186.53;;;18.55;53.17
56514;BME280;62152;52.078;8.414;2023-03-30T17:31:12;99186.13;;;18.57;52.54
56514;BME280;62152;52.078;8.414;2023-03-30T17:35:16;99195.53;;;18.59;52.97
56514;BME280;62152;52.078;8.414;2023-03-30T17:39:17;99207.69;;;18.62;52.65
56514;BME280;62152;52.078;8.414;2023-03-30T17:43:18;99206.91;;;18.62;53.03
56514;BME280;62152;52.078;8.414;2023-03-30T17:47:18;99210.44;;;18.62;52.83
56514;BME280;62152;52.078;8.414;2023-03-30T17:51:20;99212.00;;;18.63;53.04
56514;BME280;62152;52.078;8.414;2023-03-30T17:55:21;99206.91;;;18.62;53.05
56514;BME280;62152;52.078;8.414;2023-03-30T17:59:23;99211.22;;;18.63;53.57
56514;BME280;62152;52.078;8.414;2023-03-30T18:03:23;99208.88;;;18.65;53.37
56514;BME280;62152;52.078;8.414;2023-03-30T18:07:25;99208.50;;;18.66;53.39
56514;BME280;62152;52.078;8.414;2023-03-30T18:11:26;99205.75;;;18.70;53.64
56514;BME280;62152;52.078;8.414;2023-03-30T18:15:26;99213.22;;;18.69;53.39
56514;BME280;62152;52.078;8.414;2023-03-30T18:19:27;99225.38;;;18.72;53.77
56514;BME280;62152;52.078;8.414;2023-03-30T18:23:29;99222.22;;;18.73;53.79
56514;BME280;62152;52.078;8.414;2023-03-30T18:27:30;99218.72;;;18.76;54.74
56514;BME280;62152;52.078;8.414;2023-03-30T18:31:31;99226.94;;;18.76;55.02
56514;BME280;62152;52.078;8.414;2023-03-30T18:35:32;99221.84;;;18.71;54.84
56514;BME280;62152;52.078;8.414;2023-03-30T18:39:36;99225.38;;;18.68;55.25
56514;BME280;62152;52.078;8.414;2023-03-30T18:43:36;99226.56;;;18.67;55.26
56514;BME280;62152;52.078;8.414;2023-03-30T18:47:36;99233.22;;;18.66;55.44
56514;BME280;62152;52.078;8.414;2023-03-30T18:51:37;99232.41;;;18.66;55.20
56514;BME280;62152;52.078;8.414;2023-03-30T18:55:39;99226.91;;;18.66;54.70
56514;BME280;62152;52.078;8.414;2023-03-30T18:59:42;99223.00;;;18.63;55.13
56514;BME280;62152;52.078;8.414;2023-03-30T19:03:42;99228.50;;;18.63;55.63
56514;BME280;62152;52.078;8.414;2023-03-30T19:07:43;99233.19;;;18.63;55.95
56514;BME280;62152;52.078;8.414;2023-03-30T19:11:45;99232.81;;;18.64;55.74
56514;BME280;62152;52.078;8.414;2023-03-30T19:15:46;99229.28;;;18.64;55.74
56514;BME280;62152;52.078;8.414;2023-03-30T19:19:46;99233.19;;;18.63;55.46
56514;BME280;62152;52.078;8.414;2023-03-30T19:23:47;99228.50;;;18.63;56.17
56514;BME280;62152;52.078;8.414;2023-03-30T19:27:49;98637.44;;;18.66;55.98
56514;BME280;62152;52.078;8.414;2023-03-30T19:31:53;99237.56;;;18.74;55.66
56514;BME280;62152;52.078;8.414;2023-03-30T19:35:53;99246.19;;;18.76;56.04
56514;BME280;62152;52.078;8.414;2023-03-30T19:39:54;99234.38;;;18.79;56.38
56514;BME280;62152;52.078;8.414;2023-03-30T19:43:56;99233.63;;;18.82;56.10
56514;BME280;62152;52.078;8.414;2023-03-30T19:47:56;99238.31;;;18.82;56.25
56514;BME280;62152;52.078;8.414;2023-03-30T19:51:56;99230.09;;;18.71;55.87
56514;BME280;62152;52.078;8.414;2023-03-30T19:55:57;99227.72;;;18.66;56.37
56514;BME280;62152;52.078;8.414;2023-03-30T19:59:59;99233.97;;;18.63;55.83
56514;BME280;62152;52.078;8.414;2023-03-30T20:03:59;99243.41;;;18.62;56.06
56514;BME280;62152;52.078;8.414;2023-03-30T20:08:00;99235.94;;;18.59;56.24
56514;BME280;62152;52.078;8.414;2023-03-30T20:12:00;99230.06;;;18.57;55.87
56514;BME280;62152;52.078;8.414;2023-03-30T20:16:02;99228.50;;;18.56;55.90
56514;BME280;62152;52.078;8.414;2023-03-30T20:20:03;99222.63;;;18.54;55.66
56514;BME280;62152;52.078;8.414;2023-03-30T20:24:04;99210.44;;;18.55;55.62
56514;BME280;62152;52.078;8.414;2023-03-30T20:28:05;99204.19;;;18.54;55.64
56514;BME280;62152;52.078;8.414;2023-03-30T20:32:06;99204.56;;;18.53;55.37
56514;BME280;62152;52.078;8.414;2023-03-30T20:36:07;99200.22;;;18.52;55.48
56514;BME280;62152;52.078;8.414;2023-03-30T20:40:08;99197.50;;;18.52;55.03
56514;BME280;62152;52.078;8.414;2023-03-30T20:44:09;99195.94;;;18.51;55.12
56514;BME280;62152;52.078;8.414;2023-03-30T20:48:11;99197.88;;;18.50;54.94
56514;BME280;62152;52.078;8.414;2023-03-30T20:52:11;99197.09;;;18.50;55.09
56514;BME280;62152;52.078;8.414;2023-03-30T20:56:12;99206.53;;;18.49;55.16
56514;BME280;62152;52.078;8.414;2023-03-30T21:00:12;99197.09;;;18.50;55.01
56514;BME280;62152;52.078;8.414;2023-03-30T21:04:14;99195.53;;;18.49;55.01
56514;BME280;62152;52.078;8.414;2023-03-30T21:08:15;99189.66;;;18.47;54.73
56514;BME280;62152;52.078;8.414;2023-03-30T21:12:15;99179.47;;;18.47;54.70
56514;BME280;62152;52.078;8.414;2023-03-30T21:16:15;99181.44;;;18.47;43.52
56514;BME280;62152;52.078;8.414;2023-03-30T21:20:17;99164.97;;;18.47;54.89
56514;BME280;62152;52.078;8.414;2023-03-30T21:24:18;99172.41;;;18.46;54.53
56514;BME280;62152;52.078;8.414;2023-03-30T21:28:18;99162.56;;;18.45;54.42
56514;BME280;62152;52.078;8.414;2023-03-30T21:32:18;99152.38;;;18.46;54.72
56514;BME280;62152;52.078;8.414;2023-03-30T21:36:20;99150.03;;;18.44;54.63
56514;BME280;62152;52.078;8.414;2023-03-30T21:40:21;99133.56;;;18.44;54.29
56514;BME280;62152;52.078;8.414;2023-03-30T21:44:22;99141.78;;;18.44;54.63
56514;BME280;62152;52.078;8.414;2023-03-30T21:48:22;99132.00;;;18.43;54.64